Zachary, Louisiana
Current Conditions -  °F | °C
As of 9:53 PM on Wednesday 22 Oct 2014 (Local Time) from KBTR Reporting Station
Clear Clear  
Wind Chill: 60°   Ceiling: Unl
Heat Index: 60°   Visibility: 10mi
Dew Point: 54°   Wind: 5mph
Humidity: 80%   Direction: 20°NNE
Pressure: 30.09"   Gusts: NA
Location:  30.65°N, 91.16°W
Report Text: KBTR 230253Z 02004KT 10SM CLR 16/12 A3009 RMK AO2 SLP189 T01560122 52015
Loading
Personal Weather Stations






























Interactive Weather Map
Tropical Storm Tracking
New forecast layout! Learn more

10-Day Weather Forecast

Advertisements
Track Severe Weather on mobile